Time;durP1;ratioP1;P1;durP2;ratioP2;P2;SDS_P1;SDS_P2;PMS_P1;PMS_P2;Temp;Humidity;BMP_temperature;BMP_pressure;BME280_temperature;BME280_humidity;BME280_pressure;Samples;Min_cycle;Max_cycle;Signal;HPM_P1;HPM_P2
2024/01/31 00:00:57;;;;;;;;;12.25;10.75;;;;;10.11;56.75;102888.88;5042275;28;45309;-60
2024/01/31 00:03:22;;;;;;;;;19.50;13.00;;;;;10.13;56.76;102888.88;5036382;28;45416;-60
2024/01/31 00:05:48;;;;;;;;;12.25;12.25;;;;;10.12;56.78;102888.00;5038469;28;71602;-61
2024/01/31 00:08:14;;;;;;;;;12.75;8.50;;;;;10.12;56.66;102877.53;5039001;28;46078;-61
2024/01/31 00:10:39;;;;;;;;;11.50;11.25;;;;;10.15;56.65;102885.44;5044000;28;62452;-60
2024/01/31 00:13:04;;;;;;;;;10.00;10.00;;;;;10.18;57.02;102879.31;5040168;28;62887;-59
2024/01/31 00:15:30;;;;;;;;;13.00;11.50;;;;;10.18;56.88;102881.94;5038190;28;73109;-60
2024/01/31 00:17:56;;;;;;;;;13.00;10.75;;;;;10.21;56.85;102885.47;5038887;28;75681;-60
2024/01/31 00:20:21;;;;;;;;;38.00;33.25;;;;;10.25;56.57;102881.13;5044069;28;45755;-61
2024/01/31 00:22:47;;;;;;;;;13.50;11.75;;;;;10.24;56.54;102884.63;5043360;28;45486;-61
2024/01/31 00:25:12;;;;;;;;;15.50;11.00;;;;;10.21;56.63;102887.22;5037993;28;45471;-61
2024/01/31 00:27:38;;;;;;;;;13.75;9.50;;;;;10.16;56.33;102886.28;5038710;28;46380;-59
2024/01/31 00:30:04;;;;;;;;;10.75;7.00;;;;;10.10;56.72;102889.72;5043433;28;69962;-60
2024/01/31 00:32:29;;;;;;;;;8.25;7.00;;;;;10.05;56.48;102892.28;5037367;28;45354;-59
2024/01/31 00:34:55;;;;;;;;;11.00;7.50;;;;;10.01;56.68;102893.13;5045052;28;45535;-60
2024/01/31 00:37:20;;;;;;;;;8.25;6.25;;;;;9.92;56.82;102882.59;5040909;28;45401;-59
2024/01/31 00:39:48;;;;;;;;;7.50;7.50;;;;;9.93;56.89;102880.84;5035975;28;73390;-60
2024/01/31 00:42:13;;;;;;;;;6.50;5.50;;;;;9.90;56.57;102879.09;5043305;28;45602;-60
2024/01/31 00:44:39;;;;;;;;;7.25;6.00;;;;;9.88;57.04;102878.19;5038132;28;72109;-60
2024/01/31 00:47:04;;;;;;;;;27.00;15.50;;;;;9.87;56.72;102876.41;5038168;28;69564;-61
2024/01/31 00:49:29;;;;;;;;;7.50;6.25;;;;;9.85;56.75;102868.56;5028712;28;73066;-61
2024/01/31 00:51:54;;;;;;;;;5.25;5.25;;;;;9.82;56.74;102868.53;5042789;28;68200;-61
2024/01/31 00:54:21;;;;;;;;;11.75;10.00;;;;;9.83;56.71;102859.81;5036394;28;72221;-61
2024/01/31 00:56:46;;;;;;;;;11.50;7.00;;;;;9.81;56.73;102852.81;5045619;28;46579;-61
2024/01/31 00:59:11;;;;;;;;;11.25;7.00;;;;;9.79;56.94;102854.53;5044584;28;68301;-61
2024/01/31 01:01:37;;;;;;;;;9.50;6.75;;;;;9.78;57.04;102858.91;5044513;28;68221;-60
2024/01/31 01:04:02;;;;;;;;;11.25;7.25;;;;;9.79;57.29;102851.91;5036523;28;58074;-60
2024/01/31 01:06:28;;;;;;;;;10.00;7.50;;;;;9.76;57.10;102842.31;5037876;28;45295;-60
2024/01/31 01:08:53;;;;;;;;;13.75;10.25;;;;;9.82;57.14;102846.72;5037249;28;70851;-60
2024/01/31 01:11:18;;;;;;;;;11.75;10.00;;;;;9.83;57.49;102851.97;5044382;28;45270;-60
2024/01/31 01:13:44;;;;;;;;;8.00;7.25;;;;;9.82;57.05;102851.97;5039120;28;45597;-60
2024/01/31 01:16:09;;;;;;;;;11.00;7.75;;;;;9.81;57.09;102847.56;5039476;28;75545;-61
2024/01/31 01:18:35;;;;;;;;;11.00;9.75;;;;;9.80;56.79;102854.56;5041244;28;72831;-61
2024/01/31 01:21:01;;;;;;;;;11.75;11.00;;;;;9.82;57.34;102854.56;5046317;28;45442;-61
2024/01/31 01:23:26;;;;;;;;;11.75;10.00;;;;;9.83;57.19;102854.59;5038095;28;45474;-61
2024/01/31 01:25:51;;;;;;;;;11.00;9.00;;;;;9.88;57.36;102855.53;5043188;28;71718;-61
2024/01/31 01:28:17;;;;;;;;;12.25;11.00;;;;;9.91;57.49;102851.19;5042091;28;45536;-61
2024/01/31 01:30:42;;;;;;;;;11.75;8.25;;;;;9.94;56.93;102849.47;5038328;28;60587;-61
2024/01/31 01:33:07;;;;;;;;;8.50;8.50;;;;;9.95;56.80;102847.72;5039281;28;68550;-61
2024/01/31 01:35:33;;;;;;;;;8.00;6.75;;;;;9.96;56.76;102849.50;5045219;28;70818;-60
2024/01/31 01:37:58;;;;;;;;;10.75;8.00;;;;;9.95;56.83;102848.63;5039654;28;45371;-61
2024/01/31 01:40:23;;;;;;;;;8.75;6.00;;;;;9.94;56.64;102844.25;5039000;28;45568;-61
2024/01/31 01:42:49;;;;;;;;;7.75;7.00;;;;;9.94;56.68;102853.84;5040793;28;45437;-60
2024/01/31 01:45:14;;;;;;;;;7.50;7.50;;;;;9.96;57.00;102847.75;5037408;28;46128;-60
2024/01/31 01:47:42;;;;;;;;;10.25;7.00;;;;;9.97;56.79;102846.91;5037351;28;58118;-61
2024/01/31 01:50:08;;;;;;;;;7.00;7.00;;;;;10.00;57.08;102846.03;5038483;28;45328;-59
2024/01/31 01:52:34;;;;;;;;;8.25;6.00;;;;;10.01;56.81;102845.19;5041389;28;45554;-61
2024/01/31 01:55:02;;;;;;;;;7.75;6.25;;;;;10.01;56.63;102845.19;5041336;28;65204;-61
2024/01/31 01:57:29;;;;;;;;;8.00;7.00;;;;;10.01;56.82;102843.44;5037298;28;45316;-61
2024/01/31 01:59:54;;;;;;;;;9.50;9.25;;;;;10.03;56.82;102843.44;5061898;28;45595;-61
2024/01/31 02:02:20;;;;;;;;;16.75;10.75;;;;;10.05;56.90;102841.72;5035605;28;73250;-61
2024/01/31 02:04:47;;;;;;;;;15.25;11.00;;;;;10.06;56.73;102846.97;5038227;28;71850;-61
2024/01/31 02:07:12;;;;;;;;;8.00;8.00;;;;;10.08;56.79;102849.59;5039499;28;72864;-61
2024/01/31 02:09:37;;;;;;;;;11.50;9.50;;;;;10.11;56.59;102848.75;5037515;28;69428;-61
2024/01/31 02:12:03;;;;;;;;;8.00;7.00;;;;;10.10;56.73;102845.25;5037004;28;63700;-61
2024/01/31 02:14:28;;;;;;;;;12.75;8.50;;;;;10.10;56.22;102841.78;5042259;28;46164;-61
2024/01/31 02:16:57;;;;;;;;;7.75;6.50;;;;;10.10;56.48;102836.53;5044265;28;53259;-61
2024/01/31 02:19:22;;;;;;;;;8.25;6.50;;;;;10.08;56.17;102831.28;5044133;28;45495;-61
2024/01/31 02:21:48;;;;;;;;;9.25;7.50;;;;;10.07;56.55;102832.13;5041838;28;47699;-61
2024/01/31 02:24:13;;;;;;;;;11.25;7.00;;;;;10.06;56.47;102823.44;5040564;28;75777;-61
2024/01/31 02:26:38;;;;;;;;;12.75;9.00;;;;;10.05;56.41;102828.63;5044580;28;45330;-61
2024/01/31 02:29:04;;;;;;;;;7.00;7.00;;;;;10.05;56.67;102833.88;5046723;28;56326;-61
2024/01/31 02:31:29;;;;;;;;;10.25;7.75;;;;;10.04;56.63;102830.38;5039529;28;72415;-61
2024/01/31 02:33:54;;;;;;;;;7.50;7.50;;;;;10.04;56.25;102835.63;5042721;28;75760;-61
2024/01/31 02:36:20;;;;;;;;;6.50;6.50;;;;;10.01;56.32;102822.50;5044386;28;45366;-59
2024/01/31 02:38:45;;;;;;;;;6.25;5.00;;;;;9.98;56.30;102838.16;5041163;28;69409;-59
2024/01/31 02:41:11;;;;;;;;;5.25;5.25;;;;;9.97;56.38;102841.66;5045910;28;45346;-59
2024/01/31 02:43:36;;;;;;;;;7.75;5.00;;;;;9.96;56.61;102842.50;5042770;28;74273;-59
2024/01/31 02:46:01;;;;;;;;;7.25;7.25;;;;;9.96;56.47;102844.25;5045422;28;47104;-59
2024/01/31 02:48:27;;;;;;;;;11.00;8.00;;;;;9.94;56.40;102835.53;5055053;28;57342;-58
2024/01/31 02:50:52;;;;;;;;;6.00;5.25;;;;;9.92;56.59;102842.47;5039991;28;70909;-60
2024/01/31 02:53:17;;;;;;;;;7.00;6.00;;;;;9.93;56.67;102841.59;5046615;28;76593;-59
2024/01/31 02:55:43;;;;;;;;;5.75;5.75;;;;;9.92;56.74;102845.09;5042596;28;45453;-60
2024/01/31 02:58:08;;;;;;;;;10.25;7.25;;;;;9.91;56.75;102835.50;5049096;28;68922;-60
2024/01/31 03:00:34;;;;;;;;;11.75;7.50;;;;;9.92;56.79;102848.59;5040240;28;73585;-61
2024/01/31 03:02:59;;;;;;;;;6.50;6.50;;;;;9.94;56.62;102853.84;5043683;28;48104;-59
2024/01/31 03:05:24;;;;;;;;;8.00;6.00;;;;;9.93;56.80;102854.69;5040920;28;61721;-60
2024/01/31 03:07:49;;;;;;;;;9.75;7.00;;;;;9.93;56.46;102854.69;5049894;28;69404;-60
2024/01/31 03:10:15;;;;;;;;;7.25;6.25;;;;;9.93;56.77;102850.31;5040270;28;45488;-60
2024/01/31 03:12:40;;;;;;;;;5.50;5.25;;;;;9.92;56.65;102852.94;5042246;28;73117;-60
2024/01/31 03:15:05;;;;;;;;;6.00;6.00;;;;;9.93;56.79;102858.16;5040596;28;45405;-59
2024/01/31 03:17:35;;;;;;;;;6.50;6.50;;;;;9.94;56.53;102856.44;5049474;28;45556;-60
2024/01/31 03:20:05;;;;;;;;;8.50;6.25;;;;;9.97;56.83;102861.69;5041346;28;45418;-60
2024/01/31 03:22:30;;;;;;;;;7.25;6.00;;;;;9.99;57.00;102860.84;5040273;28;47171;-60
2024/01/31 03:24:55;;;;;;;;;11.75;7.00;;;;;9.99;56.77;102855.63;5041542;28;72159;-60
2024/01/31 03:27:21;;;;;;;;;11.00;10.00;;;;;9.97;56.82;102862.59;5043493;28;50737;-60
2024/01/31 03:29:46;;;;;;;;;9.00;7.50;;;;;9.99;56.56;102862.59;5040300;28;71964;-59
2024/01/31 03:32:11;;;;;;;;;7.50;6.00;;;;;10.02;56.83;102862.59;5044310;28;77683;-60
2024/01/31 03:34:37;;;;;;;;;8.25;5.25;;;;;9.98;56.53;102856.47;5039457;28;74402;-60
2024/01/31 03:37:02;;;;;;;;;7.25;6.00;;;;;9.98;56.17;102861.69;5042700;28;46006;-60
2024/01/31 03:39:28;;;;;;;;;5.00;5.00;;;;;9.99;56.36;102866.09;5041997;28;45333;-60
2024/01/31 03:41:53;;;;;;;;;3.75;3.75;;;;;10.00;56.23;102865.22;5046792;28;52264;-60
2024/01/31 03:44:18;;;;;;;;;11.25;4.50;;;;;10.00;56.25;102857.34;5040260;28;73544;-60
2024/01/31 03:46:44;;;;;;;;;7.00;6.75;;;;;10.00;55.91;102865.22;5041221;28;57418;-60
2024/01/31 03:49:09;;;;;;;;;9.75;8.00;;;;;9.99;56.14;102863.47;5039740;28;70934;-60
2024/01/31 03:51:34;;;;;;;;;6.75;5.00;;;;;9.95;56.05;102868.66;5038378;28;69513;-60
2024/01/31 03:54:00;;;;;;;;;8.25;6.50;;;;;9.96;55.90;102870.41;5039297;28;73300;-59
2024/01/31 03:56:25;;;;;;;;;10.00;7.00;;;;;9.96;56.00;102873.03;5042509;28;68189;-59
2024/01/31 03:58:50;;;;;;;;;8.00;8.00;;;;;9.95;56.31;102873.88;5038500;28;63943;-60
2024/01/31 04:01:17;;;;;;;;;10.75;7.50;;;;;9.96;56.16;102879.13;5039548;28;72873;-58
2024/01/31 04:03:44;;;;;;;;;6.50;6.00;;;;;9.96;56.21;102881.75;5038605;28;45856;-59
2024/01/31 04:06:09;;;;;;;;;10.25;9.00;;;;;9.97;56.17;102890.47;5045403;28;45323;-59
2024/01/31 04:08:35;;;;;;;;;8.00;6.25;;;;;9.93;56.25;102879.09;5075833;27;45569;-59
2024/01/31 04:11:00;;;;;;;;;16.50;9.50;;;;;9.93;56.44;102881.69;5046469;28;55151;-59
2024/01/31 04:13:25;;;;;;;;;7.75;6.50;;;;;9.93;56.17;102892.16;5038022;28;73213;-60
2024/01/31 04:15:51;;;;;;;;;12.75;8.25;;;;;9.94;56.32;102893.06;5042902;28;70434;-60
2024/01/31 04:18:17;;;;;;;;;10.00;7.00;;;;;9.94;56.42;102887.84;5037832;28;45235;-60
2024/01/31 04:20:42;;;;;;;;;12.00;9.50;;;;;9.95;56.12;102886.94;5042727;28;55909;-60
2024/01/31 04:23:07;;;;;;;;;13.00;7.50;;;;;9.94;56.09;102878.25;5038178;28;45650;-60
2024/01/31 04:25:33;;;;;;;;;8.50;7.00;;;;;9.96;55.95;102873.03;5042091;28;45920;-60
2024/01/31 04:27:58;;;;;;;;;10.75;6.00;;;;;9.96;56.19;102878.25;5044298;28;45485;-60
2024/01/31 04:30:24;;;;;;;;;9.75;5.75;;;;;9.97;55.81;102878.28;5037621;28;73426;-60
2024/01/31 04:32:49;;;;;;;;;8.00;5.50;;;;;9.97;56.05;102867.81;5038409;28;71337;-60
2024/01/31 04:35:15;;;;;;;;;11.00;6.50;;;;;9.97;55.97;102880.00;5040164;28;48104;-60
2024/01/31 04:37:40;;;;;;;;;14.00;8.75;;;;;9.92;55.83;102882.59;5042831;28;45385;-60
2024/01/31 04:40:06;;;;;;;;;7.25;5.50;;;;;9.90;55.76;102881.69;5040870;28;47123;-60
2024/01/31 04:42:32;;;;;;;;;6.25;5.00;;;;;9.90;56.01;102886.94;5037183;28;45582;-60
2024/01/31 04:44:57;;;;;;;;;6.00;5.00;;;;;9.91;55.79;102879.94;5039512;28;64578;-60
2024/01/31 04:47:25;;;;;;;;;8.25;6.00;;;;;9.92;55.83;102881.72;5038440;28;53024;-60
2024/01/31 04:49:56;;;;;;;;;5.75;5.75;;;;;9.92;55.69;102877.34;5051921;28;46264;-61
2024/01/31 04:52:21;;;;;;;;;6.50;5.75;;;;;9.91;55.28;102866.88;5037772;28;45423;-61
2024/01/31 04:54:47;;;;;;;;;5.75;5.00;;;;;9.89;55.38;102859.00;5039838;28;45429;-61
2024/01/31 04:57:12;;;;;;;;;4.75;4.25;;;;;9.90;55.35;102860.78;5045165;28;73071;-60
2024/01/31 04:59:38;;;;;;;;;4.00;4.00;;;;;9.89;55.19;102862.50;5035169;28;75565;-60
2024/01/31 05:02:04;;;;;;;;;4.25;4.00;;;;;9.90;55.54;102863.38;5039088;28;45383;-60
2024/01/31 05:04:30;;;;;;;;;8.00;5.25;;;;;9.91;55.32;102852.03;5038361;28;45309;-60
2024/01/31 05:06:55;;;;;;;;;5.75;5.00;;;;;9.90;55.29;102855.53;5040439;28;73005;-60
2024/01/31 05:09:20;;;;;;;;;6.00;5.00;;;;;9.91;55.29;102856.41;5043602;28;75555;-59
2024/01/31 05:11:49;;;;;;;;;6.25;6.00;;;;;9.91;55.15;102848.56;5037850;28;66156;-60
2024/01/31 05:14:14;;;;;;;;;10.75;7.00;;;;;9.89;55.45;102841.56;5040712;28;58163;-60
2024/01/31 05:16:40;;;;;;;;;5.75;5.50;;;;;9.91;55.58;102843.34;5041572;28;64343;-60
2024/01/31 05:19:08;;;;;;;;;4.50;4.00;;;;;9.87;55.72;102835.44;5038818;28;46176;-60
2024/01/31 05:21:33;;;;;;;;;7.00;5.00;;;;;9.87;55.42;102837.19;5036144;28;45891;-61
2024/01/31 05:23:59;;;;;;;;;3.00;3.00;;;;;9.85;55.03;102831.94;5040860;28;45489;-60
2024/01/31 05:26:24;;;;;;;;;7.00;6.00;;;;;9.85;55.45;102831.09;5039970;28;63159;-60
2024/01/31 05:28:49;;;;;;;;;4.00;4.00;;;;;9.82;55.12;102833.66;5037153;28;75274;-60
2024/01/31 05:31:15;;;;;;;;;5.75;4.00;;;;;9.83;55.14;102841.53;5037009;28;73445;-60
2024/01/31 05:33:40;;;;;;;;;2.75;2.75;;;;;9.85;54.93;102838.94;5037753;28;68275;-60
2024/01/31 05:36:07;;;;;;;;;7.25;6.00;;;;;9.87;54.81;102845.91;5074063;27;45486;-60
2024/01/31 05:38:32;;;;;;;;;6.25;4.00;;;;;9.87;54.98;102840.69;5043742;28;46163;-60
2024/01/31 05:40:57;;;;;;;;;4.00;4.00;;;;;9.89;54.90;102841.56;5038164;28;73394;-60
2024/01/31 05:43:22;;;;;;;;;4.50;4.50;;;;;9.89;54.79;102838.94;5038968;28;68295;-60
2024/01/31 05:45:48;;;;;;;;;6.25;4.50;;;;;9.89;54.57;102838.94;5040913;28;45224;-60
2024/01/31 05:48:16;;;;;;;;;5.00;3.75;;;;;9.90;54.82;102834.63;5054856;28;73031;-60
2024/01/31 05:50:41;;;;;;;;;3.50;3.00;;;;;9.92;55.06;102835.50;5046663;28;45777;-60
2024/01/31 05:53:06;;;;;;;;;5.00;3.50;;;;;9.92;54.78;102830.28;5042959;28;67372;-60
2024/01/31 05:55:32;;;;;;;;;4.00;3.00;;;;;9.94;54.76;102835.53;5040479;28;67987;-60
2024/01/31 05:57:57;;;;;;;;;6.50;4.75;;;;;9.92;54.57;102825.03;5049757;28;45431;-60
2024/01/31 06:00:22;;;;;;;;;3.00;3.00;;;;;9.91;54.55;102823.28;5038972;28;45505;-60
2024/01/31 06:02:48;;;;;;;;;7.00;4.25;;;;;9.95;54.71;102825.09;5040882;28;68112;-60
2024/01/31 06:05:14;;;;;;;;;6.00;4.00;;;;;9.96;54.61;102821.59;5042401;28;45402;-60
2024/01/31 06:07:39;;;;;;;;;5.50;4.00;;;;;9.98;54.81;102819.84;5056051;28;45861;-61
2024/01/31 06:10:05;;;;;;;;;7.25;5.00;;;;;9.92;54.75;102824.19;5042535;28;45341;-60
2024/01/31 06:12:31;;;;;;;;;5.50;5.50;;;;;9.87;54.81;102824.13;5040731;28;45433;-60
2024/01/31 06:14:56;;;;;;;;;5.75;3.50;;;;;9.85;55.06;102820.63;5041695;28;71437;-60
2024/01/31 06:17:21;;;;;;;;;8.75;5.50;;;;;9.83;54.93;102819.72;5041942;28;70984;-59
2024/01/31 06:19:48;;;;;;;;;5.25;5.25;;;;;9.82;54.46;102812.72;5041765;28;45305;-60
2024/01/31 06:22:13;;;;;;;;;7.00;5.00;;;;;9.78;54.94;102803.13;5045120;28;45794;-62
2024/01/31 06:24:38;;;;;;;;;6.50;6.00;;;;;9.72;54.86;102806.56;5044530;28;67702;-61
2024/01/31 06:27:04;;;;;;;;;7.50;5.25;;;;;9.68;55.11;102813.50;5043346;28;66344;-61
2024/01/31 06:29:29;;;;;;;;;5.25;3.25;;;;;9.66;54.90;102809.09;5041742;28;45465;-61
2024/01/31 06:31:59;;;;;;;;;5.25;4.75;;;;;9.65;54.77;102808.22;5051230;28;45287;-61
2024/01/31 06:34:25;;;;;;;;;7.00;5.25;;;;;9.62;54.77;102808.19;5043950;28;46204;-60
2024/01/31 06:36:50;;;;;;;;;3.75;3.50;;;;;9.62;55.22;102807.31;5055959;28;46198;-59
2024/01/31 06:39:15;;;;;;;;;5.25;4.00;;;;;9.59;54.95;102796.81;5049609;28;62107;-59
2024/01/31 06:41:41;;;;;;;;;9.50;4.25;;;;;9.58;55.06;102803.78;5040147;28;49576;-63
2024/01/31 06:44:06;;;;;;;;;5.75;4.00;;;;;9.55;55.28;102805.50;5045368;28;65680;-62
2024/01/31 06:46:32;;;;;;;;;4.25;4.00;;;;;9.53;55.26;102804.63;5045516;28;45493;-65
2024/01/31 06:48:58;;;;;;;;;9.50;4.00;;;;;9.46;55.45;102801.06;5075339;27;45462;-64
2024/01/31 06:51:23;;;;;;;;;3.25;3.25;;;;;9.41;55.54;102808.81;5041218;28;45683;-67
2024/01/31 06:53:49;;;;;;;;;8.50;4.00;;;;;9.37;55.40;102800.94;5040331;28;45410;-62
2024/01/31 06:56:17;;;;;;;;;11.25;4.00;;;;;9.34;55.61;102801.78;5042040;28;45929;-60
2024/01/31 06:58:46;;;;;;;;;7.50;4.00;;;;;9.30;55.65;102802.63;5040464;28;45520;-60
2024/01/31 07:01:16;;;;;;;;;4.00;4.00;;;;;9.27;55.87;102805.19;5039330;28;45766;-61
2024/01/31 07:03:42;;;;;;;;;5.50;5.50;;;;;9.25;55.72;102806.91;5041916;28;45321;-62
2024/01/31 07:06:07;;;;;;;;;4.75;4.00;;;;;9.17;56.00;102803.31;5040920;28;46180;-59
2024/01/31 07:08:33;;;;;;;;;6.00;5.50;;;;;9.21;56.41;102813.84;5042958;28;67306;-63
2024/01/31 07:10:58;;;;;;;;;7.50;5.00;;;;;9.19;56.19;102814.66;5039142;28;45344;-61
2024/01/31 07:13:24;;;;;;;;;6.50;5.00;;;;;9.17;56.39;102822.50;5036545;28;67514;-60
2024/01/31 07:15:49;;;;;;;;;6.25;4.00;;;;;9.15;56.49;102816.34;5037983;28;45441;-60
2024/01/31 07:18:14;;;;;;;;;5.75;4.00;;;;;9.13;56.22;102816.31;5040597;28;45268;-60
2024/01/31 07:20:39;;;;;;;;;4.25;4.25;;;;;9.11;56.77;102814.56;5038430;28;62830;-60
2024/01/31 07:23:05;;;;;;;;;6.00;3.00;;;;;9.09;57.06;102817.16;5039275;28;71949;-61
2024/01/31 07:25:30;;;;;;;;;5.25;5.00;;;;;9.08;57.15;102824.97;5038663;28;68930;-65
2024/01/31 07:27:56;;;;;;;;;7.25;6.25;;;;;9.07;57.11;102828.47;5064507;28;46001;-64
2024/01/31 07:30:21;;;;;;;;;9.50;5.50;;;;;9.06;57.38;102839.75;5039646;28;45403;-60
2024/01/31 07:32:47;;;;;;;;;5.25;4.00;;;;;9.06;57.53;102843.22;5041783;28;45714;-64
2024/01/31 07:35:12;;;;;;;;;0.25;0.25;;;;;9.04;57.48;102834.50;5038080;28;72077;-64
2024/01/31 07:37:38;;;;;;;;;9.00;6.50;;;;;9.06;57.61;102839.75;5039728;28;45372;-63
2024/01/31 07:40:05;;;;;;;;;8.75;5.25;;;;;9.05;57.65;102851.94;5039439;28;45821;-59
2024/01/31 07:42:30;;;;;;;;;10.25;7.00;;;;;9.05;58.11;102851.06;5039321;28;45595;-59
2024/01/31 07:44:55;;;;;;;;;5.00;5.00;;;;;9.04;57.86;102855.38;5039177;28;46824;-60
2024/01/31 07:47:21;;;;;;;;;9.00;7.25;;;;;9.05;58.02;102848.47;5034773;28;64509;-61
2024/01/31 07:49:46;;;;;;;;;7.25;6.00;;;;;9.05;58.06;102851.06;5041699;28;64186;-60
2024/01/31 07:52:11;;;;;;;;;10.75;8.00;;;;;9.05;58.34;102861.50;5038911;28;73206;-61
2024/01/31 07:54:37;;;;;;;;;9.50;8.00;;;;;9.03;58.41;102855.38;5039320;28;46240;-58
2024/01/31 07:57:02;;;;;;;;;7.00;6.50;;;;;9.03;58.57;102852.75;5036985;28;66477;-59
2024/01/31 07:59:28;;;;;;;;;6.00;6.00;;;;;9.03;58.58;102840.59;5037689;28;45504;-59
2024/01/31 08:01:53;;;;;;;;;7.75;7.25;;;;;9.03;58.76;102832.75;5037676;28;72102;-59
2024/01/31 08:04:18;;;;;;;;;9.25;5.50;;;;;9.04;59.18;102831.88;5036350;28;64249;-59
2024/01/31 08:06:44;;;;;;;;;8.50;6.50;;;;;9.07;59.20;102836.28;5039725;28;73587;-59
2024/01/31 08:09:10;;;;;;;;;8.50;6.00;;;;;9.08;59.18;102836.31;5039566;28;67775;-59
2024/01/31 08:11:44;;;;;;;;;6.75;6.75;;;;;9.10;59.31;102829.38;5039385;28;45428;-59
2024/01/31 08:14:10;;;;;;;;;9.00;6.00;;;;;9.12;59.40;102829.41;5069054;28;62158;-59
2024/01/31 08:16:36;;;;;;;;;11.50;10.00;;;;;9.12;59.62;102824.16;5055923;28;45297;-59
2024/01/31 08:19:02;;;;;;;;;9.75;8.25;;;;;9.15;59.89;102823.31;5040431;28;45417;-59
2024/01/31 08:21:29;;;;;;;;;8.75;6.00;;;;;9.18;59.93;102816.41;5040326;28;45358;-59
2024/01/31 08:23:55;;;;;;;;;8.75;7.75;;;;;9.24;60.04;102815.59;5045242;28;52117;-60
2024/01/31 08:26:22;;;;;;;;;11.00;8.50;;;;;9.28;60.34;102814.78;5039294;28;71832;-58
2024/01/31 08:28:47;;;;;;;;;10.50;9.00;;;;;9.36;60.15;102827.94;5040000;28;45395;-59
2024/01/31 08:31:13;;;;;;;;;12.50;10.00;;;;;9.43;60.31;102830.63;5040080;28;45358;-59
2024/01/31 08:33:38;;;;;;;;;15.25;9.75;;;;;9.51;60.00;102825.50;5040377;28;47000;-59
2024/01/31 08:36:04;;;;;;;;;13.00;9.00;;;;;9.54;60.04;102828.13;5039745;28;53947;-59
2024/01/31 08:38:29;;;;;;;;;13.00;10.00;;;;;9.56;60.12;102836.00;5040437;28;45358;-59
2024/01/31 08:40:55;;;;;;;;;11.00;11.00;;;;;9.58;60.20;102832.56;5040863;28;45460;-59
2024/01/31 08:43:20;;;;;;;;;12.50;11.00;;;;;9.60;60.07;102840.41;5039068;28;75378;-59
2024/01/31 08:45:45;;;;;;;;;13.25;8.50;;;;;9.65;60.40;102850.06;5039172;28;63667;-60
2024/01/31 08:48:11;;;;;;;;;12.50;10.50;;;;;9.67;60.39;102842.22;5043830;28;45402;-59
2024/01/31 08:50:36;;;;;;;;;11.00;9.25;;;;;9.69;60.35;102837.88;5043076;28;45232;-59
2024/01/31 08:53:01;;;;;;;;;16.75;11.00;;;;;9.71;60.58;102837.91;5039284;28;71825;-59
2024/01/31 08:55:27;;;;;;;;;17.00;10.75;;;;;9.73;60.35;102828.34;5039884;28;45240;-60
2024/01/31 08:57:52;;;;;;;;;12.00;8.75;;;;;9.75;60.47;102835.31;5040051;28;54330;-59
2024/01/31 09:00:18;;;;;;;;;12.00;8.25;;;;;9.81;60.75;102842.34;5038889;28;63920;-59
2024/01/31 09:02:43;;;;;;;;;9.50;6.50;;;;;9.90;60.57;102850.31;5039953;28;45294;-59
2024/01/31 09:05:10;;;;;;;;;7.75;7.00;;;;;9.97;60.90;102856.44;5055471;28;45339;-59
2024/01/31 09:07:35;;;;;;;;;12.25;9.00;;;;;10.09;60.65;102864.41;5040128;28;45354;-60
2024/01/31 09:10:01;;;;;;;;;8.75;8.00;;;;;10.23;60.98;102872.41;5039743;28;45629;-60
2024/01/31 09:12:26;;;;;;;;;14.25;7.75;;;;;10.35;60.53;102869.91;5044662;28;71846;-59
2024/01/31 09:14:52;;;;;;;;;10.25;8.25;;;;;10.46;60.86;102872.63;5042113;28;45463;-60
2024/01/31 09:17:17;;;;;;;;;6.75;6.25;;;;;10.57;60.48;102867.47;5039758;28;45405;-59
2024/01/31 09:19:42;;;;;;;;;10.25;10.00;;;;;10.66;60.83;102862.31;5039611;28;45498;-59
2024/01/31 09:22:08;;;;;;;;;11.25;7.00;;;;;10.73;60.80;102858.88;5043875;28;46085;-59
2024/01/31 09:24:33;;;;;;;;;12.50;9.50;;;;;10.80;60.23;102852.81;5039312;28;47050;-60
2024/01/31 09:26:58;;;;;;;;;14.50;11.50;;;;;10.87;60.37;102853.72;5038871;28;64232;-59
2024/01/31 09:29:25;;;;;;;;;11.00;9.25;;;;;10.96;60.61;102855.50;5038912;28;47092;-59
2024/01/31 09:31:50;;;;;;;;;12.75;8.00;;;;;10.98;60.47;102843.31;5039779;28;45640;-59
2024/01/31 09:34:16;;;;;;;;;10.75;8.00;;;;;11.07;60.73;102847.72;5038586;28;73355;-59
2024/01/31 09:36:45;;;;;;;;;14.50;9.00;;;;;11.14;60.45;102844.25;5039576;28;45278;-59
2024/01/31 09:39:10;;;;;;;;;12.75;8.25;;;;;11.21;60.22;102841.66;5036734;28;45466;-60
2024/01/31 09:41:36;;;;;;;;;15.50;13.25;;;;;11.29;60.75;102833.81;5038031;28;74013;-60
2024/01/31 09:44:02;;;;;;;;;13.00;8.75;;;;;11.35;60.52;102839.09;5038312;28;64827;-59
2024/01/31 09:46:29;;;;;;;;;14.25;10.25;;;;;11.39;60.19;102832.13;5035843;28;45914;-60
2024/01/31 09:48:55;;;;;;;;;16.50;13.75;;;;;11.40;60.54;102825.97;5052259;28;45330;-59
2024/01/31 09:51:23;;;;;;;;;13.75;12.00;;;;;11.43;60.35;102823.38;5044845;28;46237;-59
2024/01/31 09:53:52;;;;;;;;;15.00;12.25;;;;;11.44;60.47;102813.75;5039295;28;45234;-59
2024/01/31 09:56:18;;;;;;;;;54.75;42.25;;;;;11.40;60.49;102813.78;5039161;28;45290;-60
2024/01/31 09:58:43;;;;;;;;;45.50;37.00;;;;;11.41;60.97;102814.66;5036745;28;71589;-59
2024/01/31 10:01:09;;;;;;;;;18.25;16.00;;;;;11.40;60.76;102812.88;5047694;28;45488;-59
2024/01/31 10:03:34;;;;;;;;;11.25;9.00;;;;;11.40;61.43;102813.78;5037969;28;45314;-60
2024/01/31 10:06:03;;;;;;;;;15.75;11.50;;;;;11.44;61.24;102806.78;5041478;28;45270;-59
2024/01/31 10:08:29;;;;;;;;;14.50;10.00;;;;;11.48;61.39;102799.81;5044315;28;45454;-57
2024/01/31 10:10:55;;;;;;;;;14.25;12.75;;;;;11.50;61.69;102791.06;5043929;28;46192;-57
2024/01/31 10:13:20;;;;;;;;;13.50;10.25;;;;;11.54;61.21;102790.22;5037871;28;45447;-59
2024/01/31 10:15:46;;;;;;;;;15.50;11.00;;;;;11.57;61.60;102784.97;5039255;28;45505;-58
2024/01/31 10:18:11;;;;;;;;;10.00;9.25;;;;;11.59;61.85;102788.44;5037853;28;72138;-58
2024/01/31 10:20:37;;;;;;;;;13.50;12.00;;;;;11.65;62.07;102794.59;5038799;28;45589;-59
2024/01/31 10:23:02;;;;;;;;;14.00;9.00;;;;;11.73;61.95;102792.84;5045922;28;45417;-58
2024/01/31 10:25:30;;;;;;;;;23.50;19.50;;;;;11.80;61.96;102788.50;5039088;28;45461;-60
2024/01/31 10:27:55;;;;;;;;;20.25;18.00;;;;;11.85;62.20;102792.00;5037065;28;45307;-60
2024/01/31 10:30:21;;;;;;;;;15.75;14.00;;;;;11.86;61.72;102789.34;5038713;28;45420;-60
2024/01/31 10:32:46;;;;;;;;;14.00;13.25;;;;;11.82;62.31;102787.63;5040553;28;45284;-59
2024/01/31 10:35:12;;;;;;;;;15.00;15.00;;;;;11.81;62.36;102784.97;5041984;28;45204;-59
2024/01/31 10:37:37;;;;;;;;;17.25;13.00;;;;;11.81;62.16;102784.97;5042237;28;45330;-59
2024/01/31 10:40:09;;;;;;;;;21.50;13.75;;;;;11.82;62.73;102779.75;5075207;27;46223;-59
2024/01/31 10:42:35;;;;;;;;;14.25;13.25;;;;;11.83;62.55;102776.25;5032439;28;46335;-60
2024/01/31 10:45:01;;;;;;;;;16.25;14.00;;;;;11.83;62.81;102780.63;5040302;28;45482;-59
2024/01/31 10:47:27;;;;;;;;;18.25;14.00;;;;;11.78;62.40;102778.88;5065534;28;45193;-59
2024/01/31 10:49:52;;;;;;;;;32.00;23.50;;;;;11.73;62.76;102771.88;5041944;28;46067;-59
2024/01/31 10:52:21;;;;;;;;;25.00;20.00;;;;;11.70;62.73;102770.09;5041973;28;45351;-60
2024/01/31 10:54:57;;;;;;;;;16.50;14.50;;;;;11.75;63.15;102764.88;5074435;27;45535;-59
2024/01/31 10:57:22;;;;;;;;;15.50;11.75;;;;;11.81;63.53;102766.63;5083121;27;45353;-59
2024/01/31 10:59:51;;;;;;;;;17.75;15.75;;;;;11.94;63.47;102768.44;5057145;28;48020;-58
2024/01/31 11:02:17;;;;;;;;;15.75;14.00;;;;;11.98;62.94;102772.78;5033312;28;45236;-59
2024/01/31 11:04:44;;;;;;;;;20.00;17.00;;;;;12.00;63.14;102759.66;5041804;28;45419;-58
2024/01/31 11:07:18;;;;;;;;;15.25;13.75;;;;;12.01;62.80;102756.19;5041839;28;45464;-60
2024/01/31 11:09:44;;;;;;;;;17.00;15.75;;;;;12.05;63.11;102764.03;5048700;28;48139;-60
2024/01/31 11:12:16;;;;;;;;;18.25;14.00;;;;;12.07;63.11;102764.03;5040593;28;45372;-60
2024/01/31 11:14:44;;;;;;;;;19.00;17.00;;;;;12.05;63.32;102761.41;5041558;28;45300;-62
2024/01/31 11:17:18;;;;;;;;;22.50;18.25;;;;;12.05;63.10;102766.66;5041806;28;45599;-60